Forgan, Oklahoma
Current Conditions -  °F | °C
As of 1:55 PM on Sunday 23 Nov 2014 (Local Time) from KLBL Reporting Station
Broken Clouds Broken Clouds  
Wind Chill: 38°   Ceiling: 6000
Heat Index: 46°   Visibility: 10mi
Dew Point: 27°   Wind: 26mph
Humidity: 46%   Direction: 360°N
Pressure: 29.64"   Gusts: 37mph
Location:  36.91°N, 100.54°W
Report Text: KLBL 231955Z AUTO 36023G32KT 10SM FEW036 SCT048 BKN060 08/M03 A2964 RMK AO1
Loading
Personal Weather Stations






























Interactive Weather Map New forecast layout! Learn more

10-Day Weather Forecast

Advertisements
Track Severe Weather on mobile